createdAt,value
2022-12-09T00:01:15.000Z,19.47
2022-12-09T00:03:43.866Z,20.23
2022-12-09T00:06:16.520Z,18.40
2022-12-09T00:08:45.473Z,17.60
2022-12-09T00:11:13.865Z,21.63
2022-12-09T00:13:42.638Z,23.87
2022-12-09T00:16:15.201Z,23.20
2022-12-09T00:18:43.968Z,21.40
2022-12-09T00:21:13.557Z,20.10
2022-12-09T00:23:42.407Z,20.93
2022-12-09T00:26:10.833Z,23.87
2022-12-09T00:28:39.075Z,22.40
2022-12-09T00:31:08.456Z,24.50
2022-12-09T00:33:37.861Z,18.90
2022-12-09T00:36:07.943Z,21.07
2022-12-09T00:38:36.256Z,23.27
2022-12-09T00:41:04.511Z,22.17
2022-12-09T00:43:36.055Z,27.30
2022-12-09T00:46:04.727Z,26.50
2022-12-09T00:48:34.622Z,21.10
2022-12-09T00:51:04.279Z,22.93
2022-12-09T00:53:33.330Z,24.95
2022-12-09T00:56:01.387Z,25.60
2022-12-09T00:58:29.752Z,27.07
2022-12-09T01:00:58.132Z,25.40
2022-12-09T01:03:26.828Z,27.50
2022-12-09T01:05:55.451Z,29.60
2022-12-09T01:08:25.442Z,22.15
2022-12-09T01:10:54.132Z,26.97
2022-12-09T01:13:22.813Z,16.40
2022-12-09T01:15:50.966Z,21.38
2022-12-09T01:18:19.658Z,22.73
2022-12-09T01:20:57.712Z,19.98
2022-12-09T01:23:27.413Z,24.00
2022-12-09T01:25:55.528Z,19.65
2022-12-09T01:28:24.145Z,21.73
2022-12-09T01:30:52.381Z,21.08
2022-12-09T01:33:20.824Z,18.67
2022-12-09T01:35:48.758Z,15.13
2022-12-09T01:38:17.201Z,22.63
2022-12-09T01:40:48.362Z,23.88
2022-12-09T01:43:19.243Z,21.00
2022-12-09T01:45:47.864Z,21.42
2022-12-09T01:48:18.667Z,20.52
2022-12-09T01:50:51.864Z,21.17
2022-12-09T01:53:23.329Z,21.20
2022-12-09T01:55:54.955Z,18.27
2022-12-09T01:58:23.534Z,20.88
2022-12-09T02:00:52.151Z,30.35
2022-12-09T02:03:21.022Z,19.83
2022-12-09T02:05:50.468Z,20.27
2022-12-09T02:08:20.742Z,20.90
2022-12-09T02:10:57.322Z,17.75
2022-12-09T02:13:33.150Z,21.73
2022-12-09T02:16:07.546Z,24.15
2022-12-09T02:18:44.408Z,22.30
2022-12-09T02:21:17.649Z,19.33
2022-12-09T02:23:52.573Z,23.75
2022-12-09T02:26:29.042Z,22.98
2022-12-09T02:29:22.533Z,25.42
2022-12-09T02:32:19.067Z,22.30
2022-12-09T02:34:57.134Z,24.23
2022-12-09T02:37:31.953Z,27.05
2022-12-09T02:40:04.045Z,23.98
2022-12-09T02:42:37.300Z,25.83
2022-12-09T02:45:08.899Z,23.27
2022-12-09T02:47:42.515Z,19.20
2022-12-09T02:50:16.177Z,23.70
2022-12-09T02:52:48.450Z,26.48
2022-12-09T02:55:19.912Z,29.55
2022-12-09T02:57:52.773Z,24.42
2022-12-09T03:00:22.232Z,21.98
2022-12-09T03:02:56.957Z,26.30
2022-12-09T03:05:38.800Z,21.52
2022-12-09T03:08:18.064Z,25.55
2022-12-09T03:10:54.880Z,21.70
2022-12-09T03:13:37.146Z,20.20
2022-12-09T03:16:12.472Z,21.13
2022-12-09T03:18:45.351Z,21.13
2022-12-09T03:21:18.281Z,23.23
2022-12-09T03:23:47.951Z,21.15
2022-12-09T03:26:17.457Z,22.05
2022-12-09T03:28:50.952Z,27.20
2022-12-09T03:31:23.119Z,26.45
2022-12-09T03:33:55.790Z,22.08
2022-12-09T03:36:30.115Z,19.25
2022-12-09T03:38:59.705Z,26.35
2022-12-09T03:41:30.476Z,17.85
2022-12-09T03:44:03.592Z,22.10
2022-12-09T03:46:32.433Z,20.45
2022-12-09T03:49:01.206Z,20.60
2022-12-09T03:51:36.920Z,18.70
2022-12-09T03:54:11.334Z,17.75
2022-12-09T03:56:42.961Z,19.77
2022-12-09T03:59:13.775Z,19.75
2022-12-09T04:01:44.421Z,23.40
2022-12-09T04:04:14.025Z,26.92
2022-12-09T04:06:44.799Z,23.42
2022-12-09T04:09:14.030Z,24.10
2022-12-09T04:11:42.318Z,24.77
2022-12-09T04:14:15.549Z,24.80
2022-12-09T04:16:44.535Z,25.50
2022-12-09T04:19:13.139Z,27.63
2022-12-09T04:21:41.191Z,23.42
2022-12-09T04:24:11.507Z,21.17
2022-12-09T04:26:39.662Z,21.80
2022-12-09T04:29:08.282Z,21.45
2022-12-09T04:31:36.634Z,29.35
2022-12-09T04:34:09.579Z,27.58
2022-12-09T04:36:38.789Z,26.67
2022-12-09T04:39:08.264Z,26.60
2022-12-09T04:41:38.395Z,23.98
2022-12-09T04:44:07.369Z,20.85
2022-12-09T04:46:35.834Z,22.90
2022-12-09T04:49:04.639Z,23.70
2022-12-09T04:51:39.231Z,22.00
2022-12-09T04:54:09.107Z,19.88
2022-12-09T04:56:38.452Z,23.08
2022-12-09T04:59:07.363Z,21.63
2022-12-09T05:01:36.218Z,21.85
2022-12-09T05:04:05.624Z,27.80
2022-12-09T05:06:34.439Z,23.52
2022-12-09T05:09:04.415Z,27.80
2022-12-09T05:11:32.984Z,23.55
2022-12-09T05:14:03.011Z,25.83
2022-12-09T05:16:31.750Z,23.17
2022-12-09T05:19:01.784Z,23.98
2022-12-09T05:21:30.271Z,26.17
2022-12-09T05:23:58.974Z,25.90
2022-12-09T05:26:27.229Z,26.10
2022-12-09T05:28:56.092Z,24.92
2022-12-09T05:31:26.050Z,25.73
2022-12-09T05:33:54.910Z,25.90
2022-12-09T05:36:27.780Z,28.13
2022-12-09T05:38:57.384Z,25.58
2022-12-09T05:41:26.226Z,23.20
2022-12-09T05:43:55.071Z,24.10
2022-12-09T05:46:23.835Z,20.92
2022-12-09T05:48:54.046Z,22.02
2022-12-09T05:51:27.172Z,35.08
2022-12-09T05:53:57.507Z,25.48
2022-12-09T05:56:27.594Z,26.85
2022-12-09T05:58:56.664Z,31.17
2022-12-09T06:01:26.506Z,26.60
2022-12-09T06:03:57.000Z,24.95
2022-12-09T06:06:28.194Z,22.02
2022-12-09T06:08:58.775Z,22.53
2022-12-09T06:11:27.910Z,21.70
2022-12-09T06:13:57.706Z,25.17
2022-12-09T06:16:26.490Z,21.90
2022-12-09T06:18:57.679Z,21.47
2022-12-09T06:21:26.119Z,20.53
2022-12-09T06:23:55.610Z,19.97
2022-12-09T06:26:26.184Z,22.65
2022-12-09T06:28:56.346Z,22.08
2022-12-09T06:31:25.931Z,19.67
2022-12-09T06:33:58.094Z,24.00
2022-12-09T06:36:31.206Z,20.47
2022-12-09T06:39:09.732Z,25.40
2022-12-09T06:41:40.013Z,25.30
2022-12-09T06:44:09.166Z,23.75
2022-12-09T06:46:38.514Z,28.90
2022-12-09T06:49:08.715Z,22.80
2022-12-09T06:51:38.216Z,23.00
2022-12-09T06:54:07.807Z,24.37
2022-12-09T06:56:36.731Z,23.67
2022-12-09T06:59:09.320Z,24.53
2022-12-09T07:01:39.769Z,25.85
2022-12-09T07:04:09.394Z,28.73
2022-12-09T07:06:42.678Z,24.90
2022-12-09T07:09:14.766Z,29.37
2022-12-09T07:11:46.499Z,28.60
2022-12-09T07:14:16.767Z,27.60
2022-12-09T07:16:45.521Z,31.53
2022-12-09T07:19:20.617Z,35.10
2022-12-09T07:21:53.245Z,28.15
2022-12-09T07:24:22.591Z,30.80
2022-12-09T07:26:55.123Z,35.83
2022-12-09T07:29:24.131Z,37.87
2022-12-09T07:31:55.685Z,32.20
2022-12-09T07:34:27.678Z,30.30
2022-12-09T07:36:58.598Z,33.80
2022-12-09T07:39:32.357Z,30.97
2022-12-09T07:42:01.514Z,35.80
2022-12-09T07:44:31.873Z,33.00
2022-12-09T07:47:02.572Z,32.63
2022-12-09T07:49:34.210Z,24.17
2022-12-09T07:52:33.766Z,40.13
2022-12-09T07:55:06.875Z,63.03
2022-12-09T07:57:38.788Z,202.73
2022-12-09T08:00:29.736Z,253.87
2022-12-09T08:03:00.138Z,188.60
2022-12-09T08:05:32.043Z,137.13
2022-12-09T08:08:29.248Z,75.13
2022-12-09T08:11:00.880Z,37.70
2022-12-09T08:13:31.083Z,74.47
2022-12-09T08:16:05.207Z,27.17
2022-12-09T08:18:35.702Z,32.57
2022-12-09T08:21:06.971Z,27.50
2022-12-09T08:23:38.934Z,31.03
2022-12-09T08:26:08.301Z,24.27
2022-12-09T08:28:38.758Z,24.83
2022-12-09T08:31:13.648Z,25.27
2022-12-09T08:33:43.521Z,30.40
2022-12-09T08:36:16.026Z,26.47
2022-12-09T08:38:48.089Z,27.60
2022-12-09T08:41:19.465Z,25.60
2022-12-09T08:43:49.177Z,27.07
2022-12-09T08:46:21.149Z,32.53
2022-12-09T08:48:51.830Z,27.53
2022-12-09T08:51:20.931Z,26.43
2022-12-09T08:53:52.934Z,25.30
2022-12-09T08:56:25.120Z,20.27
2022-12-09T08:58:54.769Z,26.80
2022-12-09T09:01:25.898Z,24.03
2022-12-09T09:03:55.015Z,22.67
2022-12-09T09:06:25.026Z,19.23
2022-12-09T09:08:55.667Z,17.97
2022-12-09T09:11:27.012Z,17.30
2022-12-09T09:13:56.969Z,23.20
2022-12-09T09:16:28.441Z,23.43
2022-12-09T09:18:58.330Z,18.40
2022-12-09T09:21:31.280Z,22.73
2022-12-09T09:24:03.892Z,20.17
2022-12-09T09:26:34.415Z,23.40
2022-12-09T09:29:04.151Z,25.77
2022-12-09T09:31:33.475Z,27.27
2022-12-09T09:34:05.768Z,20.00
2022-12-09T09:36:35.516Z,24.03
2022-12-09T09:39:06.851Z,21.23
2022-12-09T09:41:47.498Z,19.90
2022-12-09T09:44:23.985Z,20.10
2022-12-09T09:46:55.418Z,26.37
2022-12-09T09:49:33.708Z,23.40
2022-12-09T09:52:08.662Z,27.30
2022-12-09T09:54:40.831Z,21.30
2022-12-09T09:57:17.289Z,21.60
2022-12-09T10:00:05.086Z,24.70
2022-12-09T10:02:56.932Z,16.00
2022-12-09T10:05:35.757Z,21.50
2022-12-09T10:08:24.225Z,19.17
2022-12-09T10:11:05.806Z,20.27
2022-12-09T10:13:48.423Z,20.50
2022-12-09T10:16:23.870Z,14.00
2022-12-09T10:19:07.971Z,18.10
2022-12-09T10:21:42.672Z,21.57
2022-12-09T10:24:24.526Z,23.27
2022-12-09T10:27:13.308Z,28.17
2022-12-09T10:29:50.701Z,18.57
2022-12-09T10:32:21.581Z,18.30
2022-12-09T10:34:50.638Z,17.97
2022-12-09T10:37:32.238Z,19.43
2022-12-09T10:40:14.472Z,19.33
2022-12-09T10:43:05.040Z,22.67
2022-12-09T10:46:00.018Z,16.07
2022-12-09T10:48:33.084Z,16.83
2022-12-09T10:51:05.107Z,24.20
2022-12-09T10:53:36.129Z,20.57
2022-12-09T10:56:05.750Z,19.70
2022-12-09T10:58:36.587Z,17.77
2022-12-09T11:01:11.134Z,20.27
2022-12-09T11:03:43.325Z,22.10
2022-12-09T11:06:27.323Z,26.30
2022-12-09T11:08:59.191Z,18.97
2022-12-09T11:11:44.664Z,19.63
2022-12-09T11:14:28.694Z,20.83
2022-12-09T11:17:01.212Z,26.97
2022-12-09T11:19:37.010Z,21.80
2022-12-09T11:22:23.112Z,27.87
2022-12-09T11:24:54.806Z,23.30
2022-12-09T11:27:31.217Z,26.50
2022-12-09T11:30:16.086Z,19.50
2022-12-09T11:33:09.795Z,21.50
2022-12-09T11:35:52.859Z,19.27
2022-12-09T11:38:42.509Z,16.93
2022-12-09T11:41:39.006Z,17.63
2022-12-09T11:44:22.278Z,22.03
2022-12-09T11:47:01.970Z,16.40
2022-12-09T11:49:35.713Z,20.43
2022-12-09T11:52:09.754Z,25.50
2022-12-09T11:54:46.303Z,18.90
2022-12-09T11:57:29.344Z,18.83
2022-12-09T12:00:04.707Z,16.23
2022-12-09T12:02:40.336Z,22.10
2022-12-09T12:05:25.047Z,23.40
2022-12-09T12:08:06.798Z,20.67
2022-12-09T12:10:39.169Z,19.73
2022-12-09T12:13:16.097Z,15.20
2022-12-09T12:15:50.032Z,16.33
2022-12-09T12:18:25.020Z,22.30
2022-12-09T12:21:20.604Z,20.63
2022-12-09T12:24:10.968Z,20.20
2022-12-09T12:26:49.224Z,16.33
2022-12-09T12:29:27.816Z,18.70
2022-12-09T12:32:11.734Z,16.23
2022-12-09T12:35:09.862Z,15.07
2022-12-09T12:37:54.453Z,14.00
2022-12-09T12:40:34.681Z,18.60
2022-12-09T12:43:38.678Z,16.73
2022-12-09T12:46:22.333Z,19.20
2022-12-09T12:49:05.815Z,17.83
2022-12-09T12:51:53.867Z,13.80
2022-12-09T12:54:39.069Z,17.33
2022-12-09T12:57:17.140Z,16.00
2022-12-09T12:59:56.129Z,15.47
2022-12-09T13:02:38.917Z,18.97
2022-12-09T13:05:18.055Z,14.70
2022-12-09T13:07:59.033Z,19.03
2022-12-09T13:10:41.637Z,14.57
2022-12-09T13:13:19.264Z,19.20
2022-12-09T13:15:54.063Z,21.23
2022-12-09T13:18:28.171Z,15.93
2022-12-09T13:20:58.688Z,15.90
2022-12-09T13:23:50.454Z,18.70
2022-12-09T13:26:30.339Z,15.80
2022-12-09T13:29:13.669Z,16.23
2022-12-09T13:31:59.573Z,16.53
2022-12-09T13:34:35.197Z,16.00
2022-12-09T13:37:03.816Z,16.43
2022-12-09T13:40:00.903Z,17.57
2022-12-09T13:42:57.795Z,16.97
2022-12-09T13:45:31.521Z,16.87
2022-12-09T13:48:04.438Z,18.93
2022-12-09T13:50:39.909Z,15.87
2022-12-09T13:53:23.630Z,15.80
2022-12-09T13:55:56.822Z,20.27
2022-12-09T13:58:42.551Z,18.37
2022-12-09T14:01:20.523Z,17.80
2022-12-09T14:04:07.490Z,17.23
2022-12-09T14:06:41.221Z,18.63
2022-12-09T14:09:26.405Z,25.00
2022-12-09T14:11:57.293Z,17.90
2022-12-09T14:14:59.363Z,19.80
2022-12-09T14:18:02.742Z,17.17
2022-12-09T14:20:39.389Z,19.50
2022-12-09T14:23:18.413Z,20.20
2022-12-09T14:26:05.592Z,17.27
2022-12-09T14:28:56.283Z,18.73
2022-12-09T14:31:58.273Z,20.40
2022-12-09T14:34:45.342Z,18.40
2022-12-09T14:37:37.328Z,18.77
2022-12-09T14:40:31.000Z,18.93
2022-12-09T14:43:09.778Z,17.90
2022-12-09T14:45:50.387Z,17.60
2022-12-09T14:48:22.899Z,18.60
2022-12-09T14:51:10.020Z,15.27
2022-12-09T14:53:39.792Z,21.47
2022-12-09T14:56:09.029Z,15.93
2022-12-09T14:58:37.409Z,17.23
2022-12-09T15:01:08.435Z,16.47
2022-12-09T15:03:44.935Z,13.93
2022-12-09T15:06:20.051Z,18.27
2022-12-09T15:08:51.311Z,20.37
2022-12-09T15:11:23.815Z,25.77
2022-12-09T15:13:54.210Z,16.57
2022-12-09T15:16:27.491Z,16.47
2022-12-09T15:18:56.184Z,20.97
2022-12-09T15:21:31.798Z,21.33
2022-12-09T15:24:01.234Z,17.37
2022-12-09T15:26:32.834Z,14.57
2022-12-09T15:29:05.352Z,22.87
2022-12-09T15:31:38.413Z,22.37
2022-12-09T15:34:15.635Z,24.70
2022-12-09T15:36:48.364Z,21.77
2022-12-09T15:39:24.246Z,18.07
2022-12-09T15:42:09.826Z,21.40
2022-12-09T15:44:43.975Z,22.27
2022-12-09T15:47:20.656Z,31.00
2022-12-09T15:49:54.564Z,17.03
2022-12-09T15:52:27.295Z,21.50
2022-12-09T15:54:56.829Z,19.00
2022-12-09T15:57:26.003Z,19.87
2022-12-09T15:59:57.965Z,34.20
2022-12-09T16:02:32.209Z,17.70
2022-12-09T16:05:05.552Z,23.93
2022-12-09T16:07:34.780Z,19.37
2022-12-09T16:10:07.367Z,22.00
2022-12-09T16:12:36.950Z,17.47
2022-12-09T16:15:07.551Z,17.73
2022-12-09T16:17:52.958Z,23.40
2022-12-09T16:20:35.687Z,23.87
2022-12-09T16:23:05.600Z,20.70
2022-12-09T16:25:39.182Z,22.07
2022-12-09T16:28:09.127Z,19.83
2022-12-09T16:30:47.374Z,17.90
2022-12-09T16:33:19.943Z,26.40
2022-12-09T16:35:58.667Z,17.80
2022-12-09T16:38:27.610Z,26.03
2022-12-09T16:41:17.856Z,26.98
2022-12-09T16:43:58.468Z,25.17
2022-12-09T16:46:40.809Z,21.80
2022-12-09T16:49:10.586Z,24.90
2022-12-09T16:51:39.833Z,23.40
2022-12-09T16:54:19.689Z,20.83
2022-12-09T16:56:49.397Z,31.13
2022-12-09T16:59:17.601Z,26.60
2022-12-09T17:01:46.773Z,23.20
2022-12-09T17:04:21.772Z,22.42
2022-12-09T17:06:50.456Z,21.02
2022-12-09T17:09:19.515Z,19.83
2022-12-09T17:11:49.341Z,27.13
2022-12-09T17:14:18.384Z,22.80
2022-12-09T17:16:46.877Z,25.75
2022-12-09T17:19:17.556Z,23.45
2022-12-09T17:21:45.896Z,23.77
2022-12-09T17:24:14.594Z,22.63
2022-12-09T17:26:42.789Z,22.25
2022-12-09T17:29:11.250Z,24.77
2022-12-09T17:31:39.563Z,33.75
2022-12-09T17:34:08.215Z,32.72
2022-12-09T17:36:38.447Z,29.47
2022-12-09T17:39:07.917Z,35.28
2022-12-09T17:41:36.604Z,25.27
2022-12-09T17:44:05.896Z,28.83
2022-12-09T17:46:35.068Z,27.00
2022-12-09T17:49:04.126Z,30.17
2022-12-09T17:51:35.957Z,26.77
2022-12-09T17:54:07.095Z,28.00
2022-12-09T17:56:35.886Z,33.13
2022-12-09T17:59:07.552Z,33.63
2022-12-09T18:01:36.895Z,31.45
2022-12-09T18:04:10.501Z,25.80
2022-12-09T18:06:41.619Z,36.38
2022-12-09T18:09:14.710Z,37.03
2022-12-09T18:11:43.876Z,35.88
2022-12-09T18:14:12.727Z,34.28
2022-12-09T18:16:41.203Z,32.60
2022-12-09T18:19:15.592Z,34.10
2022-12-09T18:21:44.240Z,33.58
2022-12-09T18:24:14.505Z,28.67
2022-12-09T18:26:42.734Z,34.97
2022-12-09T18:29:11.874Z,31.13
2022-12-09T18:31:41.060Z,37.28
2022-12-09T18:34:09.636Z,28.85
2022-12-09T18:36:39.445Z,30.88
2022-12-09T18:39:08.799Z,32.95
2022-12-09T18:41:38.676Z,35.60
2022-12-09T18:44:09.110Z,29.48
2022-12-09T18:46:40.110Z,34.35
2022-12-09T18:49:11.663Z,31.17
2022-12-09T18:51:40.901Z,37.75
2022-12-09T18:54:10.089Z,38.65
2022-12-09T18:56:39.897Z,37.67
2022-12-09T18:59:09.481Z,34.28
2022-12-09T19:01:41.138Z,37.67
2022-12-09T19:04:14.466Z,34.22
2022-12-09T19:06:45.481Z,32.55
2022-12-09T19:09:16.645Z,37.60
2022-12-09T19:11:48.008Z,44.15
2022-12-09T19:14:17.720Z,42.47
2022-12-09T19:16:47.026Z,34.85
2022-12-09T19:19:17.158Z,37.20
2022-12-09T19:21:45.797Z,48.60
2022-12-09T19:24:16.260Z,43.17
2022-12-09T19:26:46.174Z,37.70
2022-12-09T19:29:17.894Z,39.55
2022-12-09T19:31:49.155Z,35.38
2022-12-09T19:34:19.081Z,37.15
2022-12-09T19:36:49.504Z,40.33
2022-12-09T19:39:19.739Z,38.92
2022-12-09T19:41:50.045Z,39.85
2022-12-09T19:44:44.284Z,39.50
2022-12-09T19:47:09.343Z,42.47
2022-12-09T19:49:41.003Z,42.45
2022-12-09T19:52:09.267Z,43.88
2022-12-09T19:54:37.989Z,42.10
2022-12-09T19:57:08.408Z,48.00
2022-12-09T19:59:37.776Z,43.28
2022-12-09T20:02:08.458Z,52.08
2022-12-09T20:04:52.099Z,45.03
2022-12-09T20:07:21.118Z,46.55
2022-12-09T20:09:50.088Z,43.60
2022-12-09T20:12:20.905Z,40.65
2022-12-09T20:14:49.292Z,43.88
2022-12-09T20:17:18.335Z,39.13
2022-12-09T20:19:46.490Z,41.50
2022-12-09T20:22:14.940Z,35.58
2022-12-09T20:24:44.463Z,42.92
2022-12-09T20:27:13.028Z,40.72
2022-12-09T20:29:42.833Z,42.80
2022-12-09T20:32:11.673Z,40.47
2022-12-09T20:34:40.542Z,41.97
2022-12-09T20:37:09.403Z,47.03
2022-12-09T20:39:38.807Z,44.88
2022-12-09T20:42:07.775Z,44.53
2022-12-09T20:44:36.206Z,39.35
2022-12-09T20:47:05.992Z,46.50
2022-12-09T20:49:34.552Z,41.25
2022-12-09T20:52:03.405Z,42.47
2022-12-09T20:54:31.941Z,45.75
2022-12-09T20:57:00.897Z,45.90
2022-12-09T20:59:29.112Z,43.97
2022-12-09T21:01:57.212Z,40.78
2022-12-09T21:04:26.957Z,45.28
2022-12-09T21:06:55.401Z,41.83
2022-12-09T21:09:27.268Z,40.92
2022-12-09T21:11:55.918Z,41.65
2022-12-09T21:14:29.429Z,49.15
2022-12-09T21:17:00.943Z,44.70
2022-12-09T21:19:32.527Z,42.20
2022-12-09T21:22:01.015Z,54.50
2022-12-09T21:24:29.496Z,55.83
2022-12-09T21:26:57.817Z,55.72
2022-12-09T21:29:31.631Z,65.97
2022-12-09T21:32:00.876Z,72.13
2022-12-09T21:34:30.340Z,71.70
2022-12-09T21:36:59.068Z,63.72
2022-12-09T21:39:28.763Z,58.70
2022-12-09T21:41:57.449Z,51.25
2022-12-09T21:44:27.526Z,47.45
2022-12-09T21:46:56.131Z,55.22
2022-12-09T21:49:24.486Z,47.08
2022-12-09T21:51:54.458Z,49.53
2022-12-09T21:54:22.896Z,47.97
2022-12-09T21:56:51.458Z,47.72
2022-12-09T21:59:19.988Z,44.00
2022-12-09T22:01:48.892Z,49.97
2022-12-09T22:04:18.022Z,56.00
2022-12-09T22:06:48.556Z,45.45
2022-12-09T22:09:20.885Z,58.55
2022-12-09T22:11:49.235Z,58.75
2022-12-09T22:14:17.843Z,52.67
2022-12-09T22:16:47.449Z,52.75
2022-12-09T22:19:18.335Z,62.40
2022-12-09T22:21:47.124Z,52.53
2022-12-09T22:24:15.969Z,54.50
2022-12-09T22:26:46.369Z,48.33
2022-12-09T22:29:16.119Z,41.63
2022-12-09T22:31:45.696Z,39.40
2022-12-09T22:34:16.006Z,39.22
2022-12-09T22:36:44.897Z,46.88
2022-12-09T22:39:14.718Z,44.00
2022-12-09T22:41:43.978Z,49.00
2022-12-09T22:44:15.268Z,42.95
2022-12-09T22:46:44.212Z,40.40
2022-12-09T22:49:14.785Z,39.70
2022-12-09T22:51:43.967Z,48.10
2022-12-09T22:54:12.822Z,48.42
2022-12-09T22:56:44.699Z,44.70
2022-12-09T22:59:15.612Z,44.72
2022-12-09T23:01:46.062Z,43.20
2022-12-09T23:04:19.068Z,40.45
2022-12-09T23:06:47.928Z,46.33
2022-12-09T23:09:21.341Z,54.60
2022-12-09T23:11:50.467Z,63.40
2022-12-09T23:14:21.078Z,54.13
2022-12-09T23:16:49.716Z,52.90
2022-12-09T23:19:17.968Z,52.73
2022-12-09T23:21:46.303Z,55.33
2022-12-09T23:24:24.104Z,47.00
2022-12-09T23:26:53.611Z,57.77
2022-12-09T23:29:23.767Z,47.95
2022-12-09T23:31:52.568Z,44.85
2022-12-09T23:34:21.615Z,49.30
2022-12-09T23:36:50.106Z,43.00
2022-12-09T23:39:19.604Z,37.90
2022-12-09T23:41:49.054Z,37.95
2022-12-09T23:44:19.372Z,35.40
2022-12-09T23:46:49.857Z,50.63
2022-12-09T23:49:18.683Z,39.95
2022-12-09T23:51:47.300Z,37.80
2022-12-09T23:54:17.930Z,34.17
2022-12-09T23:56:48.488Z,42.73
2022-12-09T23:59:18.095Z,33.80
